CNC7 weather

Lake Muskoka/Mortimer'S Point Seaplane Base
Port Carling, Ontario, Canada

Public forecast

Using degrees Celsius for public forecast. Weather courtesy of forecast.io.

METAR (pilot weather report)

Closest report is Muskoka Airport, 11.8 nm (21.9 km) ESE. Retrieved 2019/05/24 04:00 UTC (23 minutes ago):

CYQA 240400Z AUTO 30010G17KT 9SM SCT045 BKN049 BKN085 11/08 A2986 RMK SLP117

TAF (pilot weather forecast)

Forecast is more than 6 hours old.

Closest forecast is Muskoka Airport, 11.8 nm (21.9 km) ESE. Retrieved 2019/05/23 20:00 UTC (8 hours ago):

TAF CYQA 231940Z 2320/2402 20008KT P6SM SCT010 BKN025 OVC040 TEMPO 2320/2321 VRB15G30KT 2SM TSRA BR BKN007 OVC020CB FM232030 28015G25KT P6SM BKN025 FM232300 28012KT P6SM SCT030 RMK FCST BASED ON AUTO OBS. NXT FCST WILL BE ISSUED AT 241145Z